Time;durP1;ratioP1;P1;durP2;ratioP2;P2;SDS_P1;SDS_P2;PMS_P1;PMS_P2;Temp;Humidity;BMP_temperature;BMP_pressure;BME280_temperature;BME280_humidity;BME280_pressure;Samples;Min_cycle;Max_cycle;Signal;HPM_P1;HPM_P2
2022/08/20 00:01:29;;;;;;;32.80;14.25;;;21.10;99.90;;;;;;5035742;28;20037;-57
2022/08/20 00:03:55;;;;;;;31.33;12.68;;;21.10;99.90;;;;;;5035720;28;20025;-57
2022/08/20 00:06:23;;;;;;;31.38;13.32;;;21.10;99.90;;;;;;5035949;28;20025;-57
2022/08/20 00:08:49;;;;;;;25.23;12.55;;;21.00;99.90;;;;;;5035793;28;20022;-57
2022/08/20 00:11:25;;;;;;;27.30;11.93;;;21.10;99.90;;;;;;5050258;28;20025;-57
2022/08/20 00:13:54;;;;;;;35.53;13.30;;;21.00;99.90;;;;;;5055714;28;20033;-57
2022/08/20 00:16:25;;;;;;;26.20;12.10;;;21.00;99.90;;;;;;5055508;28;20057;-57
2022/08/20 00:18:50;;;;;;;35.17;11.88;;;21.00;99.90;;;;;;5055577;28;20363;-57
2022/08/20 00:21:19;;;;;;;26.00;11.65;;;21.00;99.90;;;;;;5055731;28;20043;-57
2022/08/20 00:23:48;;;;;;;33.17;12.77;;;21.00;99.90;;;;;;5055260;28;20037;-57
2022/08/20 00:26:15;;;;;;;23.90;11.00;;;21.00;99.90;;;;;;5055342;28;20036;-57
2022/08/20 00:28:41;;;;;;;28.55;12.55;;;21.00;99.90;;;;;;5055073;28;20447;-57
2022/08/20 00:31:09;;;;;;;30.27;11.35;;;21.00;99.90;;;;;;5055365;28;20078;-57
2022/08/20 00:33:36;;;;;;;29.70;10.85;;;20.90;99.90;;;;;;5055366;28;20451;-57
2022/08/20 00:36:05;;;;;;;25.80;10.93;;;20.80;99.90;;;;;;5055259;28;20036;-57
2022/08/20 00:38:33;;;;;;;26.42;11.45;;;20.70;99.90;;;;;;5055180;28;20028;-57
2022/08/20 00:40:59;;;;;;;29.55;10.75;;;20.80;99.90;;;;;;5055018;28;20071;-57
2022/08/20 00:43:44;;;;;;;30.25;10.63;;;20.80;99.90;;;;;;5055069;28;20029;-57
2022/08/20 00:46:22;;;;;;;28.25;10.45;;;20.80;99.90;;;;;;5055118;28;20494;-57
2022/08/20 00:48:52;;;;;;;25.50;10.15;;;20.80;99.90;;;;;;5053650;28;20053;-57
2022/08/20 00:51:27;;;;;;;23.63;10.40;;;20.80;99.90;;;;;;5055164;28;20437;-57
2022/08/20 00:54:01;;;;;;;29.67;10.30;;;20.90;99.90;;;;;;5054972;28;20037;-57
2022/08/20 00:56:29;;;;;;;26.70;11.27;;;20.80;99.90;;;;;;5054924;28;20167;-57
2022/08/20 00:58:55;;;;;;;26.88;11.70;;;20.70;99.90;;;;;;5055078;28;20104;-57
2022/08/20 01:01:21;;;;;;;28.33;12.30;;;20.60;99.90;;;;;;5054112;28;20033;-57
2022/08/20 01:03:48;;;;;;;32.00;13.13;;;20.60;99.90;;;;;;5054827;28;20032;-57
2022/08/20 01:06:14;;;;;;;30.42;12.35;;;20.60;99.90;;;;;;5054477;28;20033;-57
2022/08/20 01:08:42;;;;;;;22.55;11.13;;;20.60;99.90;;;;;;5054526;28;20066;-57
2022/08/20 01:11:16;;;;;;;28.15;11.27;;;20.60;99.90;;;;;;5041052;28;20029;-57
2022/08/20 01:13:45;;;;;;;29.60;11.52;;;20.80;99.90;;;;;;5034722;28;20037;-57
2022/08/20 01:16:22;;;;;;;24.83;11.25;;;20.70;99.90;;;;;;5034756;28;20049;-57
2022/08/20 01:18:49;;;;;;;23.08;11.40;;;20.60;99.90;;;;;;5034710;28;20517;-57
2022/08/20 01:21:21;;;;;;;25.95;11.88;;;20.60;99.90;;;;;;5034623;28;20055;-57
2022/08/20 01:24:11;;;;;;;28.63;11.02;;;20.50;99.90;;;;;;5034587;28;20018;-57
2022/08/20 01:26:40;;;;;;;25.70;12.52;;;20.60;99.90;;;;;;5034696;28;20045;-57
2022/08/20 01:29:11;;;;;;;33.95;13.48;;;20.70;99.90;;;;;;5034339;28;20034;-57
2022/08/20 01:31:40;;;;;;;37.63;14.52;;;20.80;99.90;;;;;;5034464;28;20049;-57
2022/08/20 01:34:10;;;;;;;31.73;13.70;;;20.80;99.90;;;;;;5034520;28;20032;-57
2022/08/20 01:36:47;;;;;;;26.90;12.20;;;20.80;99.90;;;;;;5034470;28;20069;-57
2022/08/20 01:39:18;;;;;;;33.63;12.88;;;20.80;99.90;;;;;;5034433;28;20483;-57
2022/08/20 01:41:48;;;;;;;33.17;12.80;;;20.80;99.90;;;;;;5034289;28;20502;-57
2022/08/20 01:44:14;;;;;;;33.28;14.05;;;20.80;99.90;;;;;;5034444;28;20038;-57
2022/08/20 01:46:42;;;;;;;42.72;13.75;;;20.80;99.90;;;;;;5034488;28;20100;-57
2022/08/20 01:49:24;;;;;;;37.50;15.55;;;20.70;99.90;;;;;;5034305;28;20368;-57
2022/08/20 01:51:52;;;;;;;36.50;15.02;;;20.70;99.90;;;;;;5034299;28;20077;-57
2022/08/20 01:54:19;;;;;;;40.10;15.65;;;20.70;99.90;;;;;;5034408;28;20030;-57
2022/08/20 01:57:00;;;;;;;32.25;14.93;;;20.60;99.90;;;;;;5034381;28;20029;-57
2022/08/20 01:59:26;;;;;;;30.17;14.35;;;20.60;99.90;;;;;;5034187;28;20029;-57
2022/08/20 02:01:54;;;;;;;27.27;14.13;;;20.50;99.90;;;;;;5033917;28;20494;-57
2022/08/20 02:04:20;;;;;;;30.95;14.50;;;20.60;99.90;;;;;;5034243;28;20030;-57
2022/08/20 02:06:53;;;;;;;35.47;15.55;;;20.60;99.90;;;;;;5034004;28;20025;-57
2022/08/20 02:09:20;;;;;;;38.78;17.83;;;20.60;99.90;;;;;;5034158;28;20025;-57
2022/08/20 02:11:46;;;;;;;34.90;15.55;;;20.60;99.90;;;;;;5052783;28;20032;-57
2022/08/20 02:14:14;;;;;;;35.33;16.42;;;20.60;99.90;;;;;;5058009;28;20059;-57
2022/08/20 02:16:45;;;;;;;51.95;16.85;;;20.70;99.90;;;;;;5057903;28;20029;-57
2022/08/20 02:19:20;;;;;;;35.75;15.85;;;20.80;99.90;;;;;;5057715;28;20025;-57
2022/08/20 02:21:54;;;;;;;38.70;17.00;;;20.70;99.90;;;;;;5056479;28;20124;-57
2022/08/20 02:24:20;;;;;;;36.10;15.30;;;20.70;99.90;;;;;;5058072;28;20033;-57
2022/08/20 02:26:46;;;;;;;38.13;15.85;;;20.60;99.90;;;;;;5057749;28;20116;-57
2022/08/20 02:29:14;;;;;;;35.63;15.98;;;20.60;99.90;;;;;;5057575;28;20036;-57
2022/08/20 02:31:43;;;;;;;36.75;15.05;;;20.60;99.90;;;;;;5057558;28;20083;-57
2022/08/20 02:34:11;;;;;;;32.88;16.63;;;20.60;99.90;;;;;;5057534;28;20052;-57
2022/08/20 02:36:38;;;;;;;33.28;15.80;;;20.50;99.90;;;;;;5057596;28;20033;-57
2022/08/20 02:39:06;;;;;;;35.40;16.58;;;20.50;99.90;;;;;;5057456;28;20033;-57
2022/08/20 02:41:34;;;;;;;41.38;16.70;;;20.50;99.90;;;;;;5057290;28;20036;-57
2022/08/20 02:44:00;;;;;;;38.63;17.17;;;20.60;99.90;;;;;;5057431;28;20037;-57
2022/08/20 02:46:27;;;;;;;30.67;15.85;;;20.50;99.90;;;;;;5057349;28;20036;-57
2022/08/20 02:48:54;;;;;;;30.23;14.98;;;20.50;99.90;;;;;;5057012;28;20045;-57
2022/08/20 02:51:20;;;;;;;39.78;15.30;;;20.60;99.90;;;;;;5057361;28;20024;-57
2022/08/20 02:53:46;;;;;;;34.13;16.38;;;20.50;99.90;;;;;;5057037;28;20455;-57
2022/08/20 02:56:12;;;;;;;33.65;14.90;;;20.50;99.90;;;;;;5057186;28;20036;-57
2022/08/20 02:58:39;;;;;;;28.27;16.20;;;20.50;99.90;;;;;;5057014;28;20098;-57
2022/08/20 03:01:11;;;;;;;32.00;15.90;;;20.40;99.90;;;;;;5057077;28;20379;-57
2022/08/20 03:03:38;;;;;;;36.20;16.17;;;20.40;99.90;;;;;;5056996;28;20035;-57
2022/08/20 03:06:06;;;;;;;36.67;15.10;;;20.30;99.90;;;;;;5057029;28;20028;-57
2022/08/20 03:08:33;;;;;;;33.90;15.57;;;20.30;99.90;;;;;;5056840;28;20032;-57
2022/08/20 03:10:59;;;;;;;33.28;14.80;;;20.30;99.90;;;;;;5044393;28;20041;-57
2022/08/20 03:13:25;;;;;;;38.55;16.27;;;20.30;99.90;;;;;;5036932;28;20513;-57
2022/08/20 03:15:57;;;;;;;33.03;15.68;;;20.20;99.90;;;;;;5036829;28;20026;-57
2022/08/20 03:18:27;;;;;;;34.17;14.70;;;20.20;99.90;;;;;;5036819;28;20033;-57
2022/08/20 03:20:53;;;;;;;40.45;15.00;;;20.20;99.90;;;;;;5036767;28;20053;-57
2022/08/20 03:23:20;;;;;;;33.85;14.82;;;20.30;99.90;;;;;;5036129;28;20079;-57
2022/08/20 03:25:47;;;;;;;35.10;14.75;;;20.30;99.90;;;;;;5036618;28;20041;-57
2022/08/20 03:28:14;;;;;;;36.20;14.93;;;20.40;99.90;;;;;;5036670;28;20033;-57
2022/08/20 03:30:41;;;;;;;36.83;14.23;;;20.40;99.90;;;;;;5036516;28;20479;-57
2022/08/20 03:33:08;;;;;;;38.22;15.15;;;20.30;99.90;;;;;;5068559;28;20083;-57
2022/08/20 03:35:37;;;;;;;28.60;14.60;;;20.30;99.90;;;;;;5036551;28;20029;-57
2022/08/20 03:38:09;;;;;;;42.00;16.38;;;20.30;99.90;;;;;;5036468;28;20465;-57
2022/08/20 03:40:36;;;;;;;41.67;17.77;;;20.40;99.90;;;;;;5036566;28;20041;-57
2022/08/20 03:43:03;;;;;;;37.38;16.48;;;20.40;99.90;;;;;;5036384;28;20506;-57
2022/08/20 03:45:31;;;;;;;47.58;19.10;;;20.40;99.90;;;;;;5036234;28;20034;-57
2022/08/20 03:47:57;;;;;;;39.65;17.20;;;20.40;99.90;;;;;;5036133;28;20152;-57
2022/08/20 03:50:27;;;;;;;40.45;16.88;;;20.40;99.90;;;;;;5036131;28;20032;-57
2022/08/20 03:52:54;;;;;;;41.25;16.60;;;20.40;99.90;;;;;;5036036;28;20117;-57
2022/08/20 03:55:21;;;;;;;38.92;15.30;;;20.40;99.90;;;;;;5036222;28;20471;-57
2022/08/20 03:57:50;;;;;;;40.33;17.30;;;20.40;99.90;;;;;;5036121;28;20037;-57
2022/08/20 04:00:28;;;;;;;40.33;16.88;;;20.40;99.90;;;;;;5035887;28;20052;-57
2022/08/20 04:02:55;;;;;;;39.40;15.68;;;20.40;99.90;;;;;;5036023;28;20041;-57
2022/08/20 04:05:26;;;;;;;31.48;15.55;;;20.40;99.90;;;;;;5035776;28;20033;-57
2022/08/20 04:07:52;;;;;;;32.63;15.98;;;20.50;99.90;;;;;;5035748;28;20490;-57
2022/08/20 04:10:18;;;;;;;43.65;16.35;;;20.50;99.90;;;;;;5035829;28;20395;-57
2022/08/20 04:12:44;;;;;;;44.20;18.00;;;20.50;99.90;;;;;;5035749;28;20037;-57
2022/08/20 04:15:14;;;;;;;45.63;17.63;;;20.50;99.90;;;;;;5035697;28;20052;-57
2022/08/20 04:17:42;;;;;;;41.05;17.67;;;20.50;99.90;;;;;;5035893;28;20032;-57
2022/08/20 04:20:10;;;;;;;42.83;19.38;;;20.50;99.90;;;;;;5035687;28;20083;-56
2022/08/20 04:22:37;;;;;;;47.58;17.52;;;20.50;99.90;;;;;;5035626;28;20101;-57
2022/08/20 04:25:04;;;;;;;37.20;14.65;;;20.50;99.90;;;;;;5035598;28;20140;-57
2022/08/20 04:27:34;;;;;;;38.70;15.00;;;20.40;99.90;;;;;;5035340;28;20238;-57
2022/08/20 04:30:02;;;;;;;35.72;16.08;;;20.40;99.90;;;;;;5035537;28;20056;-57
2022/08/20 04:32:29;;;;;;;36.67;16.67;;;20.40;99.90;;;;;;5035234;28;20528;-57
2022/08/20 04:34:55;;;;;;;34.53;15.48;;;20.30;99.90;;;;;;5034488;28;20471;-57
2022/08/20 04:37:22;;;;;;;41.13;16.58;;;20.30;99.90;;;;;;5035482;28;20032;-57
2022/08/20 04:40:52;;;;;;;38.55;16.27;;;20.40;99.90;;;;;;5035204;28;20387;-57
2022/08/20 04:42:38;;;;;;;36.58;14.98;;;20.40;99.90;;;;;;5035144;28;20395;-57
2022/08/20 04:45:05;;;;;;;37.38;15.60;;;20.40;99.90;;;;;;5035184;28;20061;-56
2022/08/20 04:47:34;;;;;;;36.58;14.82;;;20.40;99.90;;;;;;5066810;28;20052;-57
2022/08/20 04:50:00;;;;;;;37.58;14.90;;;20.50;99.90;;;;;;5035106;28;20111;-57
2022/08/20 04:52:27;;;;;;;38.28;15.00;;;20.40;99.90;;;;;;5035068;28;20427;-57
2022/08/20 04:54:56;;;;;;;35.17;14.70;;;20.50;99.90;;;;;;5035096;28;20026;-57
2022/08/20 04:57:24;;;;;;;32.80;14.95;;;20.60;99.90;;;;;;5034980;28;20021;-56
2022/08/20 04:59:52;;;;;;;35.13;15.60;;;20.60;99.90;;;;;;5035089;28;20037;-57
2022/08/20 05:02:21;;;;;;;38.22;16.50;;;20.60;99.90;;;;;;5035038;28;20037;-56
2022/08/20 05:04:48;;;;;;;43.35;16.50;;;20.60;99.90;;;;;;5034837;28;20350;-57
2022/08/20 05:07:15;;;;;;;33.38;17.27;;;20.60;99.90;;;;;;5034715;28;20104;-56
2022/08/20 05:09:42;;;;;;;37.28;17.80;;;20.70;99.90;;;;;;5035045;28;20025;-57
2022/08/20 05:12:08;;;;;;;37.75;16.90;;;20.70;99.90;;;;;;5034581;28;20087;-57
2022/08/20 05:14:34;;;;;;;41.90;17.27;;;20.70;99.90;;;;;;5035123;28;20447;-57
2022/08/20 05:17:04;;;;;;;36.55;16.83;;;20.70;99.90;;;;;;5034798;28;20064;-57
2022/08/20 05:19:33;;;;;;;38.65;18.00;;;20.60;99.90;;;;;;5034954;28;20553;-57
2022/08/20 05:22:00;;;;;;;33.70;14.93;;;20.60;99.90;;;;;;5034645;28;20029;-57
2022/08/20 05:24:26;;;;;;;27.20;16.42;;;20.60;99.90;;;;;;5034456;28;20487;-56
2022/08/20 05:26:54;;;;;;;37.42;17.35;;;20.60;99.90;;;;;;5034741;28;20036;-57
2022/08/20 05:29:22;;;;;;;40.17;19.77;;;20.70;99.90;;;;;;5034530;28;20029;-57
2022/08/20 05:31:48;;;;;;;34.65;16.27;;;20.70;99.90;;;;;;5034572;28;20025;-57
2022/08/20 05:34:15;;;;;;;34.95;16.60;;;20.70;99.90;;;;;;5034488;28;20405;-57
2022/08/20 05:36:46;;;;;;;31.13;17.52;;;20.60;99.90;;;;;;5034506;28;20028;-57
2022/08/20 05:39:12;;;;;;;31.98;16.40;;;20.60;99.90;;;;;;5034409;28;20515;-57
2022/08/20 05:41:39;;;;;;;33.22;18.38;;;20.70;99.90;;;;;;5034509;28;20475;-57
2022/08/20 05:44:12;;;;;;;35.50;17.55;;;20.80;99.90;;;;;;5034530;28;20467;-57
2022/08/20 05:46:39;;;;;;;36.20;18.88;;;20.60;99.90;;;;;;5035717;28;20029;-57
2022/08/20 05:49:07;;;;;;;37.65;18.10;;;20.70;99.90;;;;;;5038525;28;20044;-56
2022/08/20 05:51:35;;;;;;;36.50;17.92;;;20.70;99.90;;;;;;5038392;28;20487;-56
2022/08/20 05:54:02;;;;;;;36.78;18.60;;;20.80;99.90;;;;;;5038373;28;20080;-56
2022/08/20 05:56:29;;;;;;;46.28;20.00;;;20.90;99.90;;;;;;5038355;28;20341;-57
2022/08/20 05:58:56;;;;;;;47.05;22.35;;;20.60;99.90;;;;;;5038371;28;20060;-59
2022/08/20 06:01:22;;;;;;;44.67;21.63;;;20.60;99.90;;;;;;5038259;28;20040;-56
2022/08/20 06:06:33;;;;;;;43.40;21.95;;;20.60;99.90;;;;;;5038158;28;20030;-56
2022/08/20 06:08:59;;;;;;;41.25;19.80;;;20.60;99.90;;;;;;5038052;28;20124;-56
2022/08/20 06:11:25;;;;;;;53.28;23.27;;;20.70;99.90;;;;;;5038069;28;20498;-57
2022/08/20 06:13:51;;;;;;;52.45;22.75;;;20.50;99.90;;;;;;5037938;28;20029;-56
2022/08/20 06:16:17;;;;;;;48.55;22.45;;;20.60;99.90;;;;;;5038044;28;20067;-56
2022/08/20 06:18:43;;;;;;;46.83;23.52;;;20.60;99.90;;;;;;5037810;28;20036;-56
2022/08/20 06:21:08;;;;;;;43.05;24.38;;;20.80;99.90;;;;;;5037851;28;20037;-56
2022/08/20 06:23:34;;;;;;;48.83;22.30;;;20.90;99.90;;;;;;5037868;28;20025;-57
2022/08/20 06:26:00;;;;;;;44.47;23.80;;;20.80;99.90;;;;;;5037763;28;20521;-57
2022/08/20 06:28:26;;;;;;;41.50;22.48;;;20.80;99.90;;;;;;5037582;28;20033;-56
2022/08/20 06:30:52;;;;;;;41.78;21.13;;;20.90;99.90;;;;;;5037945;28;20029;-57
2022/08/20 06:33:18;;;;;;;38.35;19.40;;;20.90;99.90;;;;;;5037715;28;20021;-57
2022/08/20 06:35:44;;;;;;;39.38;18.20;;;21.00;99.90;;;;;;5037543;28;20044;-57
2022/08/20 06:38:11;;;;;;;34.80;17.95;;;21.00;99.90;;;;;;5037490;28;20124;-57
2022/08/20 06:40:37;;;;;;;37.15;18.80;;;21.10;99.90;;;;;;5036307;28;20025;-56
2022/08/20 06:43:03;;;;;;;37.90;17.98;;;21.10;99.90;;;;;;5037451;28;20033;-57
2022/08/20 06:45:31;;;;;;;37.92;17.90;;;21.00;99.90;;;;;;5037394;28;20033;-57
2022/08/20 06:48:00;;;;;;;34.83;19.38;;;21.10;99.90;;;;;;5037201;28;20088;-57
2022/08/20 06:50:40;;;;;;;41.10;18.88;;;21.10;99.90;;;;;;5037322;28;20028;-57
2022/08/20 06:53:10;;;;;;;45.80;19.63;;;21.20;99.90;;;;;;5037376;28;20026;-57
2022/08/20 06:55:38;;;;;;;;;;;21.10;99.90;;;;;;5037735;28;20112;-57
2022/08/20 06:58:07;;;;;;;35.65;17.98;;;21.10;99.90;;;;;;5036274;28;20287;-57
2022/08/20 07:00:36;;;;;;;36.35;16.95;;;21.10;99.90;;;;;;5037240;28;20036;-57
2022/08/20 07:03:03;;;;;;;31.10;16.23;;;21.10;99.90;;;;;;5037015;28;20450;-57
2022/08/20 07:05:32;;;;;;;37.28;14.90;;;21.00;99.90;;;;;;5037061;28;20531;-57
2022/08/20 07:07:59;;;;;;;32.83;16.27;;;21.10;99.90;;;;;;5036903;28;20044;-57
2022/08/20 07:10:27;;;;;;;43.08;20.58;;;21.00;99.90;;;;;;5037080;28;20029;-57
2022/08/20 07:12:53;;;;;;;46.25;19.73;;;21.00;99.90;;;;;;5036954;28;20030;-57
2022/08/20 07:15:27;;;;;;;36.83;16.95;;;21.00;99.90;;;;;;5036907;28;20025;-57
2022/08/20 07:17:59;;;;;;;32.72;17.02;;;21.10;99.90;;;;;;5037135;28;20025;-57
2022/08/20 07:20:26;;;;;;;38.22;17.13;;;21.20;99.90;;;;;;5036828;28;20033;-57
2022/08/20 07:22:52;;;;;;;41.10;17.35;;;21.40;99.90;;;;;;5036674;28;20089;-57
2022/08/20 07:25:20;;;;;;;42.92;18.80;;;21.40;99.90;;;;;;5036614;28;20818;-57
2022/08/20 07:27:47;;;;;;;31.90;16.92;;;21.40;99.90;;;;;;5036678;28;20033;-57
2022/08/20 07:33:08;;;;;;;32.53;15.07;;;21.40;99.90;;;;;;5036712;28;20029;-57
2022/08/20 07:35:34;;;;;;;37.67;15.90;;;21.50;99.90;;;;;;5036857;28;20037;-57
2022/08/20 07:38:00;;;;;;;41.13;16.48;;;21.40;99.90;;;;;;5036689;28;20041;-57
2022/08/20 07:40:30;;;;;;;33.08;15.27;;;21.40;99.90;;;;;;5036496;28;20090;-57
2022/08/20 07:42:57;;;;;;;29.65;13.00;;;21.50;99.90;;;;;;5036370;28;20090;-57
2022/08/20 07:45:24;;;;;;;28.98;14.68;;;21.50;99.90;;;;;;5036419;28;20391;-57
2022/08/20 07:47:52;;;;;;;24.98;14.48;;;21.50;99.90;;;;;;5036198;28;20179;-57
2022/08/20 07:50:21;;;;;;;28.88;13.30;;;21.60;99.90;;;;;;5036202;28;20061;-57
2022/08/20 07:52:51;;;;;;;27.02;12.38;;;21.60;99.90;;;;;;5036192;28;20048;-57
2022/08/20 07:55:17;;;;;;;22.50;12.10;;;21.60;99.90;;;;;;5036121;28;20033;-57
2022/08/20 07:57:46;;;;;;;34.05;13.07;;;21.60;99.90;;;;;;5036275;28;20101;-57
2022/08/20 08:00:13;;;;;;;29.35;12.48;;;21.60;99.90;;;;;;5036010;28;20032;-57
2022/08/20 08:02:39;;;;;;;22.70;13.02;;;21.70;99.90;;;;;;5036125;28;20025;-57
2022/08/20 08:05:06;;;;;;;29.35;12.77;;;21.70;99.90;;;;;;5035967;28;20021;-57
2022/08/20 08:07:33;;;;;;;23.90;11.82;;;21.60;99.90;;;;;;5035892;28;20438;-57
2022/08/20 08:10:00;;;;;;;30.67;13.20;;;21.60;99.90;;;;;;5035872;28;20033;-57
2022/08/20 08:12:35;;;;;;;30.95;13.55;;;21.70;99.90;;;;;;5035753;28;20455;-57
2022/08/20 08:15:03;;;;;;;27.33;12.70;;;21.80;99.90;;;;;;5035735;28;20032;-57
2022/08/20 08:17:30;;;;;;;27.80;14.60;;;21.70;99.90;;;;;;5035677;28;20026;-57
2022/08/20 08:19:58;;;;;;;25.27;14.27;;;21.80;99.90;;;;;;5035641;28;20097;-57
2022/08/20 08:22:24;;;;;;;29.15;13.18;;;21.80;99.90;;;;;;5034350;28;20045;-57
2022/08/20 08:24:50;;;;;;;23.58;12.52;;;21.80;99.90;;;;;;5035657;28;20033;-57
2022/08/20 08:27:20;;;;;;;37.50;15.82;;;21.90;99.90;;;;;;5035468;28;20052;-57
2022/08/20 08:29:48;;;;;;;36.38;16.92;;;21.90;99.90;;;;;;5035350;28;20029;-57
2022/08/20 08:32:14;;;;;;;34.80;15.18;;;22.00;99.90;;;;;;5035473;28;20038;-57
2022/08/20 08:34:40;;;;;;;29.75;14.85;;;22.10;99.90;;;;;;5035425;28;20028;-57
2022/08/20 08:37:06;;;;;;;27.40;13.30;;;22.30;99.90;;;;;;5035383;28;20473;-57
2022/08/20 08:39:33;;;;;;;25.40;11.73;;;22.30;99.90;;;;;;5035350;28;20029;-57
2022/08/20 08:42:01;;;;;;;32.40;12.25;;;22.40;99.90;;;;;;5035335;28;20086;-57
2022/08/20 08:44:34;;;;;;;24.95;11.95;;;22.40;99.90;;;;;;5035038;28;20075;-57
2022/08/20 08:47:17;;;;;;;23.80;11.57;;;22.40;99.90;;;;;;5034960;28;20033;-57
2022/08/20 08:49:44;;;;;;;29.00;13.57;;;22.40;99.90;;;;;;5035031;28;20459;-57
2022/08/20 08:52:39;;;;;;;22.27;11.93;;;22.40;99.90;;;;;;5035009;28;20026;-57
2022/08/20 08:55:14;;;;;;;28.33;11.38;;;22.50;99.90;;;;;;5035158;28;20124;-57
2022/08/20 08:57:40;;;;;;;30.27;12.45;;;22.60;99.90;;;;;;5035053;28;20486;-57
2022/08/20 09:00:16;;;;;;;25.80;12.07;;;22.60;99.90;;;;;;5035094;28;20066;-57
2022/08/20 09:03:04;;;;;;;33.20;16.60;;;22.50;99.90;;;;;;5034944;28;20038;-57
2022/08/20 09:05:53;;;;;;;31.45;15.80;;;22.60;99.90;;;;;;5034682;28;20029;-57
2022/08/20 09:08:25;;;;;;;38.65;18.58;;;22.70;99.90;;;;;;5034643;28;20065;-57
2022/08/20 09:10:51;;;;;;;38.33;19.50;;;22.80;99.90;;;;;;5034869;28;20021;-57
2022/08/20 09:13:17;;;;;;;34.55;15.68;;;23.00;99.90;;;;;;5034683;28;20104;-57
2022/08/20 09:15:43;;;;;;;39.78;17.65;;;22.90;99.90;;;;;;5034672;28;20030;-57
2022/08/20 09:18:09;;;;;;;39.50;14.90;;;23.00;99.90;;;;;;5034697;28;20530;-57
2022/08/20 09:20:35;;;;;;;41.00;16.33;;;23.30;99.90;;;;;;5034507;28;20045;-57
2022/08/20 09:23:04;;;;;;;34.60;15.60;;;23.40;99.90;;;;;;5034426;28;20025;-57
2022/08/20 09:25:30;;;;;;;31.60;15.35;;;23.60;99.90;;;;;;5034540;28;20428;-57
2022/08/20 09:27:56;;;;;;;42.33;15.48;;;23.80;99.90;;;;;;5034364;28;20064;-57
2022/08/20 09:30:22;;;;;;;41.90;14.80;;;24.10;99.90;;;;;;5034566;28;20105;-57
2022/08/20 09:32:48;;;;;;;40.78;14.73;;;24.30;99.90;;;;;;5034481;28;20053;-57
2022/08/20 09:35:14;;;;;;;32.45;12.73;;;24.50;99.90;;;;;;5034482;28;20088;-57
2022/08/20 09:37:41;;;;;;;37.10;14.00;;;24.70;99.90;;;;;;5034325;28;20032;-57
2022/08/20 09:40:08;;;;;;;35.60;14.25;;;25.00;99.90;;;;;;5034413;28;20022;-57
2022/08/20 09:42:36;;;;;;;28.15;13.52;;;24.80;99.90;;;;;;5034541;28;20076;-57
2022/08/20 09:45:03;;;;;;;29.25;13.40;;;25.10;99.90;;;;;;5034300;28;20108;-57
2022/08/20 09:47:28;;;;;;;27.92;12.50;;;25.80;99.90;;;;;;5034298;28;20185;-57
2022/08/20 09:49:54;;;;;;;25.35;11.23;;;26.30;99.90;;;;;;5034353;28;20124;-57
2022/08/20 09:52:25;;;;;;;29.00;12.07;;;26.10;99.90;;;;;;5034419;28;20033;-57
2022/08/20 09:54:55;;;;;;;23.63;11.18;;;26.30;99.90;;;;;;5034362;28;20022;-57
2022/08/20 09:57:21;;;;;;;19.67;7.67;;;26.60;99.90;;;;;;5032988;28;20383;-57
2022/08/20 09:59:55;;;;;;;22.00;9.70;;;26.70;99.90;;;;;;5034261;28;20032;-57
2022/08/20 10:02:22;;;;;;;31.90;8.80;;;26.70;99.90;;;;;;5034314;28;20037;-57
2022/08/20 10:04:48;;;;;;;20.88;9.13;;;26.60;99.90;;;;;;5034429;28;20029;-57
2022/08/20 10:07:14;;;;;;;19.80;9.88;;;26.60;99.90;;;;;;5034135;28;20041;-57
2022/08/20 10:09:40;;;;;;;33.30;11.15;;;26.50;99.90;;;;;;5034093;28;20041;-57
2022/08/20 10:12:06;;;;;;;25.65;9.70;;;26.50;99.90;;;;;;5034156;28;20117;-57
2022/08/20 10:14:32;;;;;;;21.23;8.27;;;26.40;99.90;;;;;;5034509;28;20113;-57
2022/08/20 10:17:00;;;;;;;32.05;10.18;;;26.60;99.90;;;;;;5034356;28;20053;-57
2022/08/20 10:19:27;;;;;;;28.38;9.52;;;26.40;99.90;;;;;;5034127;28;20471;-57
2022/08/20 10:21:53;;;;;;;24.10;7.80;;;26.40;99.90;;;;;;5034122;28;20083;-57
2022/08/20 10:24:21;;;;;;;24.52;9.18;;;26.50;99.90;;;;;;5033985;28;20083;-57
2022/08/20 10:26:47;;;;;;;27.50;8.52;;;26.30;99.90;;;;;;5033983;28;20564;-57
2022/08/20 10:29:14;;;;;;;22.83;8.55;;;26.40;99.90;;;;;;5033903;28;20029;-57
2022/08/20 10:31:40;;;;;;;21.20;7.53;;;26.40;98.70;;;;;;5034013;28;20022;-57
2022/08/20 10:34:06;;;;;;;24.15;8.00;;;26.00;99.90;;;;;;5035870;28;20534;-57
2022/08/20 10:36:32;;;;;;;21.23;7.95;;;25.80;99.90;;;;;;5019683;28;20022;-57
2022/08/20 10:38:58;;;;;;;26.40;8.65;;;25.80;99.90;;;;;;5037420;28;20030;-57
2022/08/20 10:41:24;;;;;;;22.23;7.38;;;25.70;99.90;;;;;;5037561;28;20041;-57
2022/08/20 10:43:50;;;;;;;26.65;8.50;;;25.80;99.90;;;;;;5037402;28;20030;-57
2022/08/20 10:46:16;;;;;;;25.35;7.85;;;25.60;99.90;;;;;;5037413;28;20053;-57
2022/08/20 10:48:43;;;;;;;25.80;7.72;;;25.50;99.90;;;;;;5037065;28;20052;-57
2022/08/20 10:51:10;;;;;;;27.85;8.27;;;25.50;99.90;;;;;;5037299;28;20466;-57
2022/08/20 10:53:36;;;;;;;23.58;8.05;;;25.50;99.90;;;;;;5037566;28;20041;-57
2022/08/20 10:56:03;;;;;;;27.48;9.95;;;25.40;99.90;;;;;;5037233;28;20025;-58
2022/08/20 10:58:29;;;;;;;42.22;8.90;;;25.50;99.90;;;;;;5037378;28;20061;-57
2022/08/20 11:00:55;;;;;;;28.65;8.50;;;25.60;99.90;;;;;;5037050;28;20029;-57
2022/08/20 11:03:21;;;;;;;23.17;8.13;;;25.20;99.90;;;;;;5037119;28;20097;-58
2022/08/20 11:05:47;;;;;;;23.45;7.22;;;25.20;99.90;;;;;;5037058;28;20033;-57
2022/08/20 11:08:13;;;;;;;31.60;7.93;;;25.20;99.90;;;;;;5036818;28;20068;-57
2022/08/20 11:10:39;;;;;;;26.52;7.15;;;25.20;99.90;;;;;;5035815;28;20033;-57
2022/08/20 11:13:07;;;;;;;23.17;8.40;;;25.10;99.90;;;;;;5036965;28;20056;-57
2022/08/20 11:15:35;;;;;;;18.15;6.97;;;25.10;99.90;;;;;;5036898;28;20033;-57
2022/08/20 11:18:02;;;;;;;15.35;7.45;;;25.10;99.90;;;;;;5036699;28;20048;-57
2022/08/20 11:20:30;;;;;;;17.55;6.72;;;24.80;99.90;;;;;;5036817;28;20029;-57
2022/08/20 11:22:57;;;;;;;17.88;7.40;;;24.80;99.90;;;;;;5036654;28;20116;-57
2022/08/20 11:25:24;;;;;;;25.52;8.15;;;24.80;99.90;;;;;;5036856;28;20079;-57
2022/08/20 11:27:51;;;;;;;18.08;7.03;;;24.90;99.90;;;;;;5036494;28;20447;-57
2022/08/20 11:30:26;;;;;;;31.63;8.57;;;24.60;99.90;;;;;;5036506;28;20025;-57
2022/08/20 11:32:53;;;;;;;28.08;8.65;;;24.50;99.90;;;;;;5036590;28;20026;-57
2022/08/20 11:35:22;;;;;;;22.55;7.72;;;24.70;99.90;;;;;;5036368;28;20033;-57
2022/08/20 11:37:52;;;;;;;29.30;6.90;;;24.80;99.90;;;;;;5036399;28;20470;-57
2022/08/20 11:40:19;;;;;;;16.38;6.85;;;24.80;99.90;;;;;;5036413;28;20060;-57
2022/08/20 11:42:46;;;;;;;40.75;8.63;;;24.80;99.90;;;;;;5036420;28;20110;-57
2022/08/20 11:45:13;;;;;;;16.08;7.88;;;24.90;99.90;;;;;;5035955;28;20537;-58
2022/08/20 11:47:40;;;;;;;18.92;7.78;;;25.10;99.90;;;;;;5036257;28;20056;-57
2022/08/20 11:50:10;;;;;;;17.77;7.55;;;25.10;99.90;;;;;;5036214;28;20033;-57
2022/08/20 11:52:36;;;;;;;19.90;7.63;;;25.00;99.90;;;;;;5036300;28;20037;-57
2022/08/20 11:55:03;;;;;;;18.70;7.28;;;25.20;99.90;;;;;;5049972;28;20238;-57
2022/08/20 11:57:32;;;;;;;33.33;9.43;;;25.40;99.90;;;;;;5035905;28;20033;-57
2022/08/20 12:00:00;;;;;;;16.42;7.00;;;25.50;99.90;;;;;;5036063;28;20037;-57
2022/08/20 12:02:27;;;;;;;16.00;7.28;;;25.30;99.90;;;;;;5035844;28;20030;-58
2022/08/20 12:04:53;;;;;;;17.40;7.68;;;25.40;99.50;;;;;;5035700;28;20038;-57
2022/08/20 12:07:23;;;;;;;21.58;8.65;;;25.50;99.90;;;;;;5035495;28;20034;-57
2022/08/20 12:09:49;;;;;;;17.02;7.68;;;25.50;99.10;;;;;;5054951;28;20043;-57
2022/08/20 12:12:16;;;;;;;17.55;7.93;;;25.30;98.00;;;;;;5055853;28;20052;-57
2022/08/20 12:14:42;;;;;;;27.67;8.88;;;25.30;99.40;;;;;;5054666;28;20032;-57
2022/08/20 12:17:20;;;;;;;16.88;8.10;;;25.50;99.00;;;;;;5055465;28;20474;-57
2022/08/20 12:19:46;;;;;;;20.52;8.57;;;25.40;99.10;;;;;;5055512;28;20386;-57
2022/08/20 12:22:12;;;;;;;23.15;9.32;;;25.40;97.80;;;;;;5055409;28;20021;-57
2022/08/20 12:24:39;;;;;;;17.10;8.25;;;25.10;99.30;;;;;;5055322;28;20033;-58
2022/08/20 12:27:14;;;;;;;34.13;10.82;;;24.90;99.70;;;;;;5055755;28;20025;-58
2022/08/20 12:29:43;;;;;;;18.35;8.68;;;25.00;99.90;;;;;;5055253;28;20025;-58
2022/08/20 12:32:09;;;;;;;20.60;8.98;;;25.30;98.20;;;;;;5055279;28;20025;-57
2022/08/20 12:34:38;;;;;;;24.63;8.55;;;25.40;97.10;;;;;;5055170;28;20033;-57
2022/08/20 12:37:09;;;;;;;26.45;7.93;;;25.70;97.40;;;;;;5055168;28;20025;-57
2022/08/20 12:39:42;;;;;;;20.08;7.97;;;26.10;97.00;;;;;;5055288;28;20182;-58